createdAt,value
2023-04-13T00:00:30.728Z,0.80
2023-04-13T00:03:00.547Z,1.10
2023-04-13T00:05:29.435Z,0.90
2023-04-13T00:08:02.779Z,1.00
2023-04-13T00:10:31.631Z,0.90
2023-04-13T00:13:01.577Z,0.90
2023-04-13T00:15:29.768Z,0.90
2023-04-13T00:17:59.762Z,1.13
2023-04-13T00:20:27.960Z,1.10
2023-04-13T00:22:56.304Z,1.10
2023-04-13T00:25:24.488Z,0.67
2023-04-13T00:27:53.986Z,0.90
2023-04-13T00:30:22.578Z,0.77
2023-04-13T00:32:51.093Z,1.03
2023-04-13T00:35:25.033Z,1.13
2023-04-13T00:37:53.446Z,0.90
2023-04-13T00:40:21.703Z,1.10
2023-04-13T00:42:51.710Z,0.90
2023-04-13T00:45:21.564Z,1.00
2023-04-13T00:47:51.885Z,0.90
2023-04-13T00:50:22.080Z,1.00
2023-04-13T00:52:50.724Z,1.00
2023-04-13T00:55:22.146Z,1.00
2023-04-13T00:57:52.453Z,1.30
2023-04-13T01:00:21.807Z,1.10
2023-04-13T01:02:50.669Z,1.13
2023-04-13T01:05:19.371Z,1.40
2023-04-13T01:08:09.189Z,1.17
2023-04-13T01:10:44.293Z,1.00
2023-04-13T01:13:20.567Z,1.27
2023-04-13T01:15:56.418Z,1.10
2023-04-13T01:18:27.630Z,1.23
2023-04-13T01:20:56.234Z,1.03
2023-04-13T01:23:32.236Z,1.17
2023-04-13T01:26:04.229Z,1.30
2023-04-13T01:28:34.653Z,0.93
2023-04-13T01:31:05.913Z,1.00
2023-04-13T01:33:34.518Z,0.87
2023-04-13T01:36:03.235Z,1.10
2023-04-13T01:38:31.351Z,0.97
2023-04-13T01:40:59.466Z,0.90
2023-04-13T01:43:28.778Z,1.10
2023-04-13T01:46:04.233Z,1.40
2023-04-13T01:48:37.266Z,1.40
2023-04-13T01:51:09.611Z,0.90
2023-04-13T01:53:41.229Z,1.00
2023-04-13T01:56:12.963Z,1.27
2023-04-13T01:58:41.895Z,1.10
2023-04-13T02:01:12.794Z,0.90
2023-04-13T02:03:43.451Z,1.10
2023-04-13T02:06:12.164Z,0.90
2023-04-13T02:08:40.454Z,0.90
2023-04-13T02:11:09.081Z,1.33
2023-04-13T02:13:37.725Z,1.03
2023-04-13T02:16:07.629Z,0.93
2023-04-13T02:18:37.060Z,0.80
2023-04-13T02:21:09.419Z,1.67
2023-04-13T02:23:38.210Z,0.90
2023-04-13T02:26:08.988Z,1.03
2023-04-13T02:28:37.141Z,0.83
2023-04-13T02:31:05.917Z,1.60
2023-04-13T02:33:34.204Z,1.07
2023-04-13T02:36:05.006Z,1.23
2023-04-13T02:38:34.126Z,1.40
2023-04-13T02:41:03.056Z,1.57
2023-04-13T02:43:31.134Z,1.20
2023-04-13T02:45:59.599Z,1.70
2023-04-13T02:48:28.338Z,1.70
2023-04-13T02:50:56.405Z,1.63
2023-04-13T02:53:26.034Z,1.70
2023-04-13T02:55:55.402Z,1.57
2023-04-13T02:58:23.930Z,1.93
2023-04-13T03:00:52.339Z,1.50
2023-04-13T03:03:20.643Z,1.77
2023-04-13T03:05:50.339Z,1.10
2023-04-13T03:08:18.795Z,1.07
2023-04-13T03:10:48.282Z,1.33
2023-04-13T03:13:16.337Z,1.10
2023-04-13T03:15:44.381Z,1.07
2023-04-13T03:18:13.227Z,1.20
2023-04-13T03:20:41.838Z,1.07
2023-04-13T03:23:09.935Z,1.27
2023-04-13T03:25:38.315Z,1.20
2023-04-13T03:28:07.826Z,1.27
2023-04-13T03:30:36.069Z,1.43
2023-04-13T03:33:04.252Z,1.07
2023-04-13T03:35:32.359Z,1.07
2023-04-13T03:38:00.413Z,1.23
2023-04-13T03:40:28.473Z,1.10
2023-04-13T03:42:56.524Z,1.13
2023-04-13T03:45:26.007Z,0.70
2023-04-13T03:47:54.116Z,0.80
2023-04-13T03:50:22.182Z,1.27
2023-04-13T03:52:50.322Z,1.10
2023-04-13T03:55:19.098Z,1.30
2023-04-13T03:57:47.719Z,1.80
2023-04-13T04:00:16.678Z,1.70
2023-04-13T04:02:46.391Z,1.20
2023-04-13T04:05:15.674Z,1.40
2023-04-13T04:07:43.824Z,1.47
2023-04-13T04:10:12.256Z,1.27
2023-04-13T04:12:40.595Z,0.90
2023-04-13T04:15:09.813Z,1.53
2023-04-13T04:17:39.946Z,2.90
2023-04-13T04:20:11.184Z,1.17
2023-04-13T04:22:39.504Z,1.67
2023-04-13T04:25:08.905Z,1.17
2023-04-13T04:27:38.365Z,1.13
2023-04-13T04:30:10.858Z,1.83
2023-04-13T04:32:40.583Z,1.47
2023-04-13T04:35:14.317Z,0.90
2023-04-13T04:37:42.440Z,1.53
2023-04-13T04:40:11.241Z,1.10
2023-04-13T04:42:39.502Z,1.50
2023-04-13T04:45:08.585Z,1.30
2023-04-13T04:47:42.016Z,1.43
2023-04-13T04:50:12.969Z,1.30
2023-04-13T04:52:42.284Z,1.40
2023-04-13T04:55:10.811Z,1.60
2023-04-13T04:57:38.932Z,1.03
2023-04-13T05:00:11.008Z,1.10
2023-04-13T05:02:39.262Z,1.00
2023-04-13T05:05:09.146Z,1.13
2023-04-13T05:07:39.409Z,1.17
2023-04-13T05:10:09.203Z,1.33
2023-04-13T05:12:37.783Z,1.33
2023-04-13T05:15:07.523Z,1.13
2023-04-13T05:17:36.444Z,1.60
2023-04-13T05:20:06.769Z,0.90
2023-04-13T05:22:35.010Z,1.13
2023-04-13T05:25:04.996Z,1.30
2023-04-13T05:27:33.218Z,1.27
2023-04-13T05:30:01.281Z,1.50
2023-04-13T05:32:29.356Z,2.53
2023-04-13T05:34:57.413Z,1.23
2023-04-13T05:37:25.630Z,0.90
2023-04-13T05:39:53.737Z,1.43
2023-04-13T05:42:24.036Z,1.17
2023-04-13T05:44:52.129Z,1.37
2023-04-13T05:47:22.615Z,1.00
2023-04-13T05:49:50.804Z,1.10
2023-04-13T05:52:18.905Z,2.17
2023-04-13T05:54:46.955Z,1.33
2023-04-13T05:57:15.028Z,1.57
2023-04-13T05:59:44.894Z,1.30
2023-04-13T06:02:12.986Z,1.33
2023-04-13T06:04:41.814Z,1.30
2023-04-13T06:07:10.102Z,1.30
2023-04-13T06:09:38.426Z,1.20
2023-04-13T06:12:06.822Z,1.30
2023-04-13T06:14:35.334Z,1.20
2023-04-13T06:17:04.866Z,1.13
2023-04-13T06:19:32.971Z,1.00
2023-04-13T06:22:01.231Z,1.53
2023-04-13T06:24:29.322Z,1.17
2023-04-13T06:26:58.319Z,1.57
2023-04-13T06:29:26.650Z,1.20
2023-04-13T06:31:55.188Z,1.50
2023-04-13T06:34:25.105Z,1.50
2023-04-13T06:36:53.339Z,1.10
2023-04-13T06:39:21.538Z,1.37
2023-04-13T06:41:49.552Z,1.63
2023-04-13T06:44:18.050Z,0.70
2023-04-13T06:46:46.331Z,1.03
2023-04-13T06:49:14.510Z,1.00
2023-04-13T06:51:43.917Z,1.30
2023-04-13T06:54:12.018Z,1.20
2023-04-13T06:56:40.062Z,1.10
2023-04-13T06:59:08.421Z,1.73
2023-04-13T07:01:37.080Z,1.20
2023-04-13T07:04:07.082Z,1.00
2023-04-13T07:06:36.433Z,0.90
2023-04-13T07:09:05.988Z,1.53
2023-04-13T07:11:34.064Z,1.20
2023-04-13T07:14:02.117Z,1.33
2023-04-13T07:16:30.268Z,1.10
2023-04-13T07:19:00.997Z,1.03
2023-04-13T07:21:31.900Z,1.10
2023-04-13T07:24:00.037Z,1.30
2023-04-13T07:26:29.522Z,1.80
2023-04-13T07:28:57.868Z,0.83
2023-04-13T07:31:26.411Z,1.23
2023-04-13T07:33:54.476Z,1.30
2023-04-13T07:36:23.532Z,1.27
2023-04-13T07:38:51.773Z,1.00
2023-04-13T07:41:22.602Z,1.30
2023-04-13T07:43:52.211Z,1.10
2023-04-13T07:46:26.336Z,1.00
2023-04-13T07:48:55.114Z,1.47
2023-04-13T07:51:23.510Z,1.67
2023-04-13T07:53:53.652Z,1.60
2023-04-13T07:56:22.623Z,1.40
2023-04-13T07:58:52.057Z,0.83
2023-04-13T08:01:21.489Z,1.10
2023-04-13T08:03:49.843Z,1.30
2023-04-13T08:06:21.011Z,1.60
2023-04-13T08:08:49.174Z,1.20
2023-04-13T08:11:17.408Z,1.10
2023-04-13T08:13:45.458Z,1.27
2023-04-13T08:16:15.111Z,0.70
2023-04-13T08:18:43.673Z,1.47
2023-04-13T08:21:12.790Z,1.80
2023-04-13T08:23:42.200Z,1.73
2023-04-13T08:26:18.182Z,1.00
2023-04-13T08:28:46.719Z,1.00
2023-04-13T08:31:16.783Z,1.77
2023-04-13T08:33:44.911Z,1.10
2023-04-13T08:36:13.083Z,1.63
2023-04-13T08:38:41.163Z,1.70
2023-04-13T08:41:11.010Z,1.40
2023-04-13T08:43:40.443Z,1.60
2023-04-13T08:46:08.736Z,2.20
2023-04-13T08:49:04.587Z,1.30
2023-04-13T08:51:32.103Z,1.43
2023-04-13T08:54:00.701Z,3.17
2023-04-13T08:56:42.293Z,1.93
2023-04-13T08:59:15.503Z,1.80
2023-04-13T09:01:46.335Z,1.10
2023-04-13T09:04:19.073Z,0.93
2023-04-13T09:06:51.131Z,1.63
2023-04-13T09:09:20.539Z,1.93
2023-04-13T09:11:51.538Z,1.40
2023-04-13T09:14:22.009Z,1.40
2023-04-13T09:16:52.084Z,1.13
2023-04-13T09:19:31.103Z,1.03
2023-04-13T09:21:59.395Z,1.60
2023-04-13T09:24:27.744Z,1.20
2023-04-13T09:26:55.815Z,1.67
2023-04-13T09:29:23.833Z,0.90
2023-04-13T09:31:52.298Z,0.90
2023-04-13T09:34:29.960Z,0.80
2023-04-13T09:37:00.213Z,1.57
2023-04-13T09:39:29.863Z,1.10
2023-04-13T09:41:58.655Z,1.90
2023-04-13T09:44:28.528Z,1.70
2023-04-13T09:47:00.459Z,1.40
2023-04-13T09:49:38.361Z,1.20
2023-04-13T09:57:24.568Z,1.10
2023-04-13T09:59:54.240Z,1.50
2023-04-13T10:02:23.590Z,1.40
2023-04-13T10:04:54.018Z,1.50
2023-04-13T10:07:26.725Z,1.30
2023-04-13T10:09:54.905Z,1.20
2023-04-13T10:12:27.881Z,0.60
2023-04-13T10:15:02.093Z,2.10
2023-04-13T10:17:43.718Z,1.20
2023-04-13T10:20:14.081Z,1.43
2023-04-13T10:22:44.942Z,1.00
2023-04-13T10:25:29.161Z,1.03
2023-04-13T10:28:02.059Z,1.10
2023-04-13T10:30:30.333Z,1.07
2023-04-13T10:33:06.150Z,0.97
2023-04-13T10:35:42.912Z,0.80
2023-04-13T10:38:11.650Z,1.00
2023-04-13T10:40:46.251Z,0.80
2023-04-13T10:43:25.307Z,1.30
2023-04-13T10:46:05.274Z,1.13
2023-04-13T10:48:33.502Z,1.40
2023-04-13T10:51:03.231Z,1.00
2023-04-13T10:53:32.939Z,1.23
2023-04-13T10:56:01.502Z,1.00
2023-04-13T10:58:32.794Z,1.00
2023-04-13T11:01:01.528Z,0.87
2023-04-13T11:03:30.249Z,0.97
2023-04-13T11:06:00.162Z,1.60
2023-04-13T11:08:30.588Z,1.13
2023-04-13T11:11:00.141Z,1.13
2023-04-13T11:13:29.239Z,0.97
2023-04-13T11:16:05.229Z,1.17
2023-04-13T11:18:33.777Z,1.20
2023-04-13T11:21:04.675Z,1.03
2023-04-13T11:23:36.424Z,2.07
2023-04-13T11:26:05.023Z,1.10
2023-04-13T11:28:40.940Z,0.80
2023-04-13T11:31:09.160Z,0.90
2023-04-13T11:33:39.927Z,1.13
2023-04-13T11:36:09.721Z,1.83
2023-04-13T11:38:41.618Z,1.20
2023-04-13T11:43:42.243Z,1.10
2023-04-13T11:46:13.659Z,0.77
2023-04-13T11:48:42.292Z,1.13
2023-04-13T11:51:11.444Z,1.43
2023-04-13T11:53:41.746Z,1.27
2023-04-13T11:56:10.653Z,1.60
2023-04-13T11:58:39.823Z,1.40
2023-04-13T12:01:14.466Z,1.80
2023-04-13T12:06:17.528Z,1.40
2023-04-13T12:08:51.723Z,1.33
2023-04-13T12:11:41.210Z,1.20
2023-04-13T12:14:45.973Z,1.30
2023-04-13T12:17:34.870Z,1.17
2023-04-13T12:20:03.702Z,1.10
2023-04-13T12:22:50.996Z,1.30
2023-04-13T12:25:25.778Z,0.93
2023-04-13T12:27:54.945Z,1.00
2023-04-13T12:30:24.310Z,1.00
2023-04-13T12:32:53.560Z,1.20
2023-04-13T12:35:22.114Z,1.50
2023-04-13T12:37:50.801Z,1.70
2023-04-13T12:40:19.328Z,0.80
2023-04-13T12:42:49.646Z,1.40
2023-04-13T12:45:17.922Z,0.90
2023-04-13T12:47:46.104Z,1.20
2023-04-13T12:50:14.624Z,1.20
2023-04-13T12:52:44.504Z,1.80
2023-04-13T12:55:12.658Z,0.70
2023-04-13T12:57:40.899Z,1.10
2023-04-13T13:00:12.587Z,0.90
2023-04-13T13:02:40.941Z,1.00
2023-04-13T13:05:10.385Z,0.70
2023-04-13T13:07:38.612Z,1.20
2023-04-13T13:10:25.780Z,1.00
2023-04-13T13:12:57.303Z,0.87
2023-04-13T13:15:26.972Z,0.93
2023-04-13T13:17:55.207Z,0.70
2023-04-13T13:20:23.491Z,1.00
2023-04-13T13:22:51.827Z,0.70
2023-04-13T13:25:20.119Z,1.00
2023-04-13T13:30:19.545Z,1.03
2023-04-13T13:32:49.197Z,0.90
2023-04-13T13:35:17.436Z,1.20
2023-04-13T13:37:45.775Z,1.30
2023-04-13T13:40:14.236Z,1.00
2023-04-13T13:45:13.404Z,1.70
2023-04-13T13:47:41.761Z,1.07
2023-04-13T13:50:12.350Z,0.90
2023-04-13T13:52:48.730Z,0.77
2023-04-13T13:55:27.666Z,0.80
2023-04-13T13:57:55.708Z,0.60
2023-04-13T14:00:23.934Z,0.90
2023-04-13T14:02:52.377Z,1.00
2023-04-13T14:05:22.680Z,0.83
2023-04-13T14:07:51.245Z,1.10
2023-04-13T14:10:19.465Z,1.67
2023-04-13T14:12:50.534Z,1.33
2023-04-13T14:15:19.291Z,1.00
2023-04-13T14:17:58.835Z,1.50
2023-04-13T14:20:38.943Z,0.90
2023-04-13T14:23:09.066Z,1.17
2023-04-13T14:25:37.651Z,1.23
2023-04-13T14:28:06.223Z,1.33
2023-04-13T14:30:34.731Z,1.50
2023-04-13T14:33:04.023Z,0.88
2023-04-13T14:35:32.287Z,1.87
2023-04-13T14:38:01.895Z,1.17
2023-04-13T14:40:30.099Z,1.40
2023-04-13T14:42:58.168Z,2.20
2023-04-13T14:45:26.694Z,2.00
2023-04-13T14:47:54.880Z,2.20
2023-04-13T14:50:23.064Z,1.73
2023-04-13T14:52:52.368Z,1.30
2023-04-13T14:55:22.854Z,1.00
2023-04-13T14:57:51.217Z,1.47
2023-04-13T15:00:26.175Z,1.27
2023-04-13T15:02:54.689Z,1.60
2023-04-13T15:05:23.694Z,1.07
2023-04-13T15:07:51.974Z,1.60
2023-04-13T15:10:21.502Z,1.20
2023-04-13T15:12:49.599Z,1.23
2023-04-13T15:15:17.812Z,1.30
2023-04-13T15:17:46.247Z,0.70
2023-04-13T15:20:14.392Z,1.20
2023-04-13T15:22:42.457Z,1.63
2023-04-13T15:25:11.098Z,1.10
2023-04-13T15:27:41.265Z,1.67
2023-04-13T15:30:10.386Z,1.23
2023-04-13T15:32:38.454Z,2.23
2023-04-13T15:35:07.539Z,1.63
2023-04-13T15:37:35.639Z,1.60
2023-04-13T15:40:07.655Z,1.70
2023-04-13T15:42:36.139Z,1.77
2023-04-13T15:45:07.185Z,1.60
2023-04-13T15:47:36.002Z,1.57
2023-04-13T15:50:04.969Z,2.13
2023-04-13T15:52:33.412Z,1.60
2023-04-13T15:55:01.711Z,1.80
2023-04-13T15:57:29.776Z,1.70
2023-04-13T15:59:57.913Z,1.80
2023-04-13T16:02:27.503Z,2.63
2023-04-13T16:04:55.743Z,1.60
2023-04-13T16:07:23.890Z,1.30
2023-04-13T16:09:56.288Z,1.30
2023-04-13T16:12:26.497Z,1.23
2023-04-13T16:14:56.090Z,1.30
2023-04-13T16:17:31.139Z,1.27
2023-04-13T16:20:18.209Z,1.30
2023-04-13T16:22:49.084Z,1.40
2023-04-13T16:25:19.218Z,1.20
2023-04-13T16:27:49.044Z,1.20
2023-04-13T16:30:20.723Z,1.90
2023-04-13T16:32:50.712Z,1.57
2023-04-13T16:35:20.822Z,2.20
2023-04-13T16:37:48.900Z,1.17
2023-04-13T16:40:17.436Z,1.50
2023-04-13T16:42:45.575Z,1.97
2023-04-13T16:45:14.849Z,2.30
2023-04-13T16:47:43.553Z,2.07
2023-04-13T16:50:12.522Z,1.20
2023-04-13T16:52:42.447Z,1.43
2023-04-13T16:55:14.082Z,1.83
2023-04-13T16:57:43.660Z,1.70
2023-04-13T17:00:12.754Z,1.53
2023-04-13T17:02:41.997Z,1.23
2023-04-13T17:05:11.764Z,1.80
2023-04-13T17:07:43.085Z,1.83
2023-04-13T17:10:12.649Z,2.37
2023-04-13T17:12:41.088Z,1.60
2023-04-13T17:15:10.464Z,1.50
2023-04-13T17:17:38.896Z,1.60
2023-04-13T17:20:09.389Z,1.20
2023-04-13T17:22:37.975Z,1.37
2023-04-13T17:25:08.646Z,1.47
2023-04-13T17:27:36.815Z,0.90
2023-04-13T17:30:05.545Z,0.90
2023-04-13T17:32:34.812Z,1.10
2023-04-13T17:35:03.367Z,1.17
2023-04-13T17:37:31.488Z,1.37
2023-04-13T17:40:00.706Z,2.27
2023-04-13T17:42:30.113Z,1.50
2023-04-13T17:44:58.188Z,1.37
2023-04-13T17:47:26.279Z,1.80
2023-04-13T17:49:54.595Z,0.97
2023-04-13T17:52:22.639Z,0.97
2023-04-13T17:54:50.916Z,1.13
2023-04-13T17:57:19.104Z,1.10
2023-04-13T17:59:48.539Z,1.50
2023-04-13T18:02:16.758Z,1.07
2023-04-13T18:04:44.940Z,1.10
2023-04-13T18:07:13.077Z,1.30
2023-04-13T18:09:41.147Z,1.20
2023-04-13T18:12:09.279Z,2.13
2023-04-13T18:14:37.318Z,1.70
2023-04-13T18:17:06.749Z,1.30
2023-04-13T18:19:34.862Z,1.30
2023-04-13T18:22:02.964Z,1.80
2023-04-13T18:24:31.034Z,1.60
2023-04-13T18:26:59.047Z,2.33
2023-04-13T18:29:27.123Z,3.13
2023-04-13T18:31:55.375Z,2.43
2023-04-13T18:34:24.909Z,3.60
2023-04-13T18:36:53.062Z,2.30
2023-04-13T18:39:21.150Z,2.60
2023-04-13T18:41:49.224Z,2.80
2023-04-13T18:44:17.292Z,1.40
2023-04-13T18:46:45.470Z,2.33
2023-04-13T18:49:13.526Z,1.70
2023-04-13T18:51:43.321Z,2.10
2023-04-13T18:54:11.425Z,2.00
2023-04-13T18:56:39.513Z,3.00
2023-04-13T18:59:07.553Z,3.20
2023-04-13T19:01:35.697Z,2.97
2023-04-13T19:04:04.114Z,2.23
2023-04-13T19:06:32.449Z,2.90
2023-04-13T19:09:01.901Z,2.57
2023-04-13T19:11:45.019Z,2.17
2023-04-13T19:14:13.179Z,2.20
2023-04-13T19:16:41.564Z,3.43
2023-04-13T19:19:10.130Z,2.80
2023-04-13T19:21:38.209Z,2.40
2023-04-13T19:24:08.343Z,2.77
2023-04-13T19:26:36.434Z,2.57
2023-04-13T19:29:04.759Z,1.70
2023-04-13T19:31:37.855Z,1.70
2023-04-13T19:34:07.660Z,1.40
2023-04-13T19:36:37.186Z,1.50
2023-04-13T19:39:07.996Z,1.70
2023-04-13T19:41:37.358Z,3.23
2023-04-13T19:44:07.962Z,1.60
2023-04-13T19:46:36.413Z,2.17
2023-04-13T19:49:04.824Z,1.93
2023-04-13T19:51:33.339Z,1.60
2023-04-13T19:54:03.122Z,3.33
2023-04-13T19:56:34.522Z,4.17
2023-04-13T19:59:04.144Z,1.37
2023-04-13T20:01:33.763Z,1.47
2023-04-13T20:04:03.597Z,1.67
2023-04-13T20:06:33.037Z,1.90
2023-04-13T20:09:09.200Z,2.20
2023-04-13T20:11:38.740Z,1.77
2023-04-13T20:14:06.842Z,1.40
2023-04-13T20:16:35.627Z,2.27
2023-04-13T20:19:04.032Z,2.20
2023-04-13T20:21:32.911Z,2.07
2023-04-13T20:24:01.226Z,2.10
2023-04-13T20:26:31.424Z,1.77
2023-04-13T20:29:02.774Z,1.93
2023-04-13T20:31:31.250Z,2.60
2023-04-13T20:34:00.000Z,2.20
2023-04-13T20:36:28.314Z,2.13
2023-04-13T20:38:59.703Z,2.07
2023-04-13T20:41:29.889Z,2.17
2023-04-13T20:43:58.757Z,1.80
2023-04-13T20:46:34.874Z,2.63
2023-04-13T20:49:05.151Z,2.17
2023-04-13T20:51:34.116Z,2.23
2023-04-13T20:54:05.469Z,3.23
2023-04-13T20:56:34.142Z,2.70
2023-04-13T20:59:03.195Z,1.80
2023-04-13T21:01:32.625Z,3.00
2023-04-13T21:04:01.172Z,3.53
2023-04-13T21:06:30.098Z,2.93
2023-04-13T21:08:59.034Z,2.37
2023-04-13T21:11:27.512Z,2.70
2023-04-13T21:13:55.895Z,2.10
2023-04-13T21:16:25.690Z,3.00
2023-04-13T21:18:55.991Z,2.50
2023-04-13T21:21:25.072Z,2.70
2023-04-13T21:23:54.698Z,2.10
2023-04-13T21:26:22.796Z,3.07
2023-04-13T21:28:51.127Z,1.60
2023-04-13T21:31:19.327Z,2.10
2023-04-13T21:33:47.491Z,1.80
2023-04-13T21:38:47.922Z,2.40
2023-04-13T21:41:16.168Z,1.93
2023-04-13T21:43:44.305Z,1.70
2023-04-13T21:46:12.627Z,1.93
2023-04-13T21:48:41.126Z,2.50
2023-04-13T21:51:10.673Z,2.40
2023-04-13T21:53:40.338Z,1.77
2023-04-13T21:56:08.814Z,1.60
2023-04-13T21:58:41.729Z,2.17
2023-04-13T22:01:11.043Z,2.37
2023-04-13T22:03:40.315Z,2.03
2023-04-13T22:06:10.651Z,3.07
2023-04-13T22:08:40.376Z,2.63
2023-04-13T22:11:08.463Z,2.00
2023-04-13T22:13:36.800Z,1.90
2023-04-13T22:16:05.085Z,1.87
2023-04-13T22:18:33.200Z,1.90
2023-04-13T22:21:01.446Z,2.60
2023-04-13T22:23:30.032Z,2.90
2023-04-13T22:26:01.431Z,1.73
2023-04-13T22:28:30.068Z,2.30
2023-04-13T22:30:58.389Z,2.70
2023-04-13T22:33:31.641Z,3.00
2023-04-13T22:36:00.006Z,1.67
2023-04-13T22:38:28.060Z,2.33
2023-04-13T22:40:56.249Z,2.10
2023-04-13T22:43:26.132Z,1.80
2023-04-13T22:46:00.832Z,2.23
2023-04-13T22:48:29.880Z,2.37
2023-04-13T22:50:58.308Z,2.00
2023-04-13T22:53:27.009Z,2.30
2023-04-13T22:55:55.518Z,2.20
2023-04-13T22:58:24.963Z,2.97
2023-04-13T23:00:53.005Z,2.00
2023-04-13T23:03:21.383Z,1.90
2023-04-13T23:05:49.559Z,2.70
2023-04-13T23:08:17.748Z,2.43
2023-04-13T23:10:45.827Z,2.57
2023-04-13T23:13:13.900Z,3.10
2023-04-13T23:15:43.325Z,1.83
2023-04-13T23:18:11.408Z,2.67
2023-04-13T23:20:39.422Z,2.73
2023-04-13T23:23:07.461Z,2.37
2023-04-13T23:25:35.696Z,2.40
2023-04-13T23:28:03.737Z,1.67
2023-04-13T23:30:31.713Z,1.90
2023-04-13T23:33:01.283Z,2.20
2023-04-13T23:35:29.365Z,2.90
2023-04-13T23:37:57.384Z,2.60
2023-04-13T23:40:25.454Z,2.27
2023-04-13T23:42:53.475Z,2.73
2023-04-13T23:45:21.527Z,2.97
2023-04-13T23:47:49.765Z,2.37
2023-04-13T23:50:19.176Z,2.83
2023-04-13T23:52:47.259Z,2.30
2023-04-13T23:55:15.528Z,2.83
2023-04-13T23:57:43.539Z,2.83
